首页
METAR-TAF:

METAR-TAF

机场 :

Tallahassee Regional Airport

塔拉哈西, 佛罗里达州, 美国

纬度: 30-23-35N, 经度: 084-21-12W, 海拔: 24米

当前天气观测

该预报发布于49分钟前的12:53 UTC
静风
温度 3°C
湿度 81%
气压 1026 hPa
能見度: 16.1公里
少量云层高于14000英尺

METAR: KTLH 231253Z 00000KT 10SM FEW140 03/00 A3030 RMK AO2 SLP262 T00280000

时间: 08:42 (13:42 UTC)

预报

该预报发布于2小时和2分钟前的11:40 UTC
预报有效从23日的 12点(UTC)到 24日的 12点(UTC)
风速节,风向
能見度: 10公里
少量云层高于25000英尺
从 23日的 2300点(UTC)
风速节,风向
能見度: 10公里
多云层高于18000英尺
从 24日的 1000点(UTC)
风速节,风向
能見度: 10公里
阴天层高于10000英尺

TAF: KTLH 231140Z 2312/2412 00000KT P6SM FEW250 FM232300 00000KT P6SM BKN180 FM241000 00000KT P6SM OVC100

超过4000个机场的气象观测和天气预报(METAR&TAF报告)。

可查询的气象台以黄色和红色小点在地图上表示。

将鼠标移到小点上方,可查看气象台名称。

然后点击查看天气观测和预报。

如需切换地图:点击带黑十字的绿色按钮放大地图;点击带横线的绿色按钮缩小地图;或者点击绿色箭头查看邻近地区的地图。


METAR-TAF: